createdAt,value
2019-05-21T00:00:14.286Z,16.70
2019-05-21T00:02:42.898Z,16.70
2019-05-21T00:05:11.583Z,16.70
2019-05-21T00:07:40.221Z,16.70
2019-05-21T00:10:09.779Z,16.60
2019-05-21T00:12:38.377Z,16.60
2019-05-21T00:15:07.346Z,16.60
2019-05-21T00:17:35.937Z,16.60
2019-05-21T00:20:06.273Z,16.60
2019-05-21T00:22:35.301Z,16.60
2019-05-21T00:25:05.677Z,16.70
2019-05-21T00:27:34.235Z,16.70
2019-05-21T00:30:39.553Z,16.80
2019-05-21T00:33:44.646Z,16.80
2019-05-21T00:36:49.721Z,16.80
2019-05-21T00:39:54.649Z,16.80
2019-05-21T00:42:32.337Z,16.80
2019-05-21T00:45:01.153Z,16.70
2019-05-21T00:47:30.167Z,16.60
2019-05-21T00:49:58.849Z,16.60
2019-05-21T00:52:27.475Z,16.60
2019-05-21T00:54:56.642Z,16.60
2019-05-21T00:57:25.211Z,16.50
2019-05-21T00:59:53.967Z,16.60
2019-05-21T01:02:22.594Z,16.60
2019-05-21T01:05:00.366Z,16.50
2019-05-21T01:07:21.431Z,16.60
2019-05-21T01:09:50.063Z,16.60
2019-05-21T01:12:18.661Z,16.70
2019-05-21T01:14:47.343Z,16.60
2019-05-21T01:17:15.934Z,16.80
2019-05-21T01:19:44.563Z,16.80
2019-05-21T01:22:13.339Z,16.80
2019-05-21T01:24:41.916Z,16.70
2019-05-21T01:27:10.498Z,16.60
2019-05-21T01:29:39.102Z,16.50
2019-05-21T01:32:07.699Z,16.20
2019-05-21T01:34:36.465Z,16.10
2019-05-21T01:37:05.182Z,16.10
2019-05-21T01:39:33.819Z,16.10
2019-05-21T01:42:02.487Z,16.10
2019-05-21T01:44:31.053Z,16.30
2019-05-21T01:46:59.659Z,16.10
2019-05-21T01:49:28.271Z,16.00
2019-05-21T01:51:56.955Z,15.90
2019-05-21T01:54:25.577Z,15.90
2019-05-21T01:56:54.200Z,15.90
2019-05-21T01:59:22.985Z,15.90
2019-05-21T02:01:51.542Z,15.90
2019-05-21T02:04:20.230Z,15.80
2019-05-21T02:06:49.431Z,15.90
2019-05-21T02:09:18.108Z,15.90
2019-05-21T02:11:46.659Z,15.90
2019-05-21T02:14:15.292Z,16.00
2019-05-21T02:16:43.904Z,16.00
2019-05-21T02:19:12.462Z,16.10
2019-05-21T02:21:41.093Z,16.10
2019-05-21T02:24:09.694Z,16.10
2019-05-21T02:26:38.282Z,16.20
2019-05-21T02:29:06.954Z,16.20
2019-05-21T02:31:35.549Z,16.20
2019-05-21T02:34:04.406Z,16.20
2019-05-21T02:36:33.029Z,16.30
2019-05-21T02:39:01.631Z,16.30
2019-05-21T02:41:30.290Z,16.30
2019-05-21T02:43:58.889Z,16.40
2019-05-21T02:46:27.555Z,16.40
2019-05-21T02:48:56.159Z,16.40
2019-05-21T02:51:25.508Z,16.40
2019-05-21T02:53:53.395Z,16.40
2019-05-21T02:56:21.989Z,16.50
2019-05-21T02:58:50.646Z,16.60
2019-05-21T03:01:20.967Z,16.60
2019-05-21T03:03:50.099Z,16.70
2019-05-21T03:06:18.692Z,16.70
2019-05-21T03:08:47.293Z,16.80
2019-05-21T03:11:16.233Z,16.90
2019-05-21T03:13:44.819Z,16.90
2019-05-21T03:16:13.451Z,17.00
2019-05-21T03:18:42.017Z,17.00
2019-05-21T03:21:10.596Z,17.00
2019-05-21T03:23:39.223Z,17.00
2019-05-21T03:26:07.931Z,17.20
2019-05-21T03:28:36.723Z,17.20
2019-05-21T03:31:05.371Z,17.30
2019-05-21T03:33:33.954Z,17.30
2019-05-21T03:36:02.562Z,17.40
2019-05-21T03:38:31.331Z,17.40
2019-05-21T03:40:59.949Z,17.30
2019-05-21T03:43:28.698Z,17.50
2019-05-21T03:45:57.307Z,17.80
2019-05-21T03:48:25.846Z,18.00
2019-05-21T03:50:55.034Z,18.30
2019-05-21T03:53:23.646Z,18.20
2019-05-21T03:55:52.239Z,18.50
2019-05-21T03:58:20.818Z,18.60
2019-05-21T04:00:49.451Z,18.70
2019-05-21T04:03:19.133Z,18.80
2019-05-21T04:05:47.725Z,18.80
2019-05-21T04:08:16.289Z,18.90
2019-05-21T04:10:44.858Z,18.70
2019-05-21T04:13:13.460Z,18.50
2019-05-21T04:15:53.115Z,18.50
2019-05-21T04:18:36.027Z,18.60
2019-05-21T04:21:04.684Z,19.00
2019-05-21T04:23:33.383Z,19.20
2019-05-21T04:26:01.982Z,19.50
2019-05-21T04:28:30.576Z,19.50
2019-05-21T04:30:59.186Z,19.60
2019-05-21T04:33:27.741Z,19.60
2019-05-21T04:35:56.386Z,19.60
2019-05-21T04:38:24.915Z,19.40
2019-05-21T04:40:53.577Z,19.40
2019-05-21T04:43:22.361Z,19.50
2019-05-21T04:45:50.945Z,19.70
2019-05-21T04:48:19.582Z,19.90
2019-05-21T04:50:48.315Z,19.80
2019-05-21T04:53:16.864Z,19.70
2019-05-21T04:55:45.579Z,19.60
2019-05-21T04:58:14.211Z,19.70
2019-05-21T05:00:42.854Z,20.10
2019-05-21T05:03:11.475Z,20.40
2019-05-21T05:05:40.045Z,20.80
2019-05-21T05:08:08.645Z,21.40
2019-05-21T05:10:37.307Z,21.80
2019-05-21T05:13:06.001Z,21.90
2019-05-21T05:15:34.762Z,21.50
2019-05-21T05:18:03.378Z,21.60
2019-05-21T05:20:31.925Z,21.60
2019-05-21T05:23:00.519Z,21.50
2019-05-21T05:25:29.119Z,21.80
2019-05-21T05:27:57.711Z,22.70
2019-05-21T05:30:26.418Z,23.30
2019-05-21T05:32:54.987Z,23.20
2019-05-21T05:35:23.623Z,23.40
2019-05-21T05:37:52.182Z,23.90
2019-05-21T05:40:20.912Z,23.90
2019-05-21T05:42:49.587Z,23.80
2019-05-21T05:45:18.519Z,23.50
2019-05-21T05:47:47.148Z,22.90
2019-05-21T05:50:17.464Z,24.00
2019-05-21T05:52:46.085Z,24.90
2019-05-21T05:55:14.960Z,24.90
2019-05-21T05:57:43.651Z,25.20
2019-05-21T06:00:13.843Z,24.90
2019-05-21T06:02:42.501Z,25.10
2019-05-21T06:05:11.859Z,24.10
2019-05-21T06:07:40.442Z,24.00
2019-05-21T06:10:09.411Z,23.50
2019-05-21T06:12:37.995Z,24.00
2019-05-21T06:15:07.930Z,24.40
2019-05-21T06:17:36.718Z,24.10
2019-05-21T06:20:06.873Z,24.50
2019-05-21T06:22:35.527Z,24.80
2019-05-21T06:25:06.539Z,25.10
2019-05-21T06:27:35.615Z,25.00
2019-05-21T06:30:06.540Z,24.30
2019-05-21T06:32:35.190Z,24.70
2019-05-21T06:35:04.996Z,25.20
2019-05-21T06:37:33.568Z,25.50
2019-05-21T06:40:02.138Z,26.30
2019-05-21T06:42:30.739Z,28.40
2019-05-21T06:44:59.331Z,29.90
2019-05-21T06:47:28.047Z,31.10
2019-05-21T06:49:56.666Z,30.50
2019-05-21T06:52:25.387Z,30.30
2019-05-21T06:54:53.986Z,29.20
2019-05-21T06:57:22.661Z,30.10
2019-05-21T06:59:51.308Z,31.90
2019-05-21T07:02:19.876Z,32.30
2019-05-21T07:04:48.482Z,32.40
2019-05-21T07:07:17.065Z,33.90
2019-05-21T07:09:45.701Z,34.30
2019-05-21T07:12:14.470Z,34.20
2019-05-21T07:14:42.232Z,34.10
2019-05-21T07:17:10.963Z,32.60
2019-05-21T07:19:39.494Z,32.20
2019-05-21T07:22:12.618Z,31.70
2019-05-21T07:24:38.460Z,30.90
2019-05-21T07:27:07.199Z,29.30
2019-05-21T07:29:35.876Z,29.50
2019-05-21T07:32:04.621Z,30.10
2019-05-21T07:34:32.592Z,30.50
2019-05-21T07:37:01.258Z,30.60
2019-05-21T07:39:29.962Z,31.50
2019-05-21T07:41:58.510Z,31.00
2019-05-21T07:44:27.077Z,31.80
2019-05-21T07:46:55.687Z,34.50
2019-05-21T07:49:23.518Z,35.60
2019-05-21T07:51:52.215Z,33.70
2019-05-21T07:54:20.061Z,35.70
2019-05-21T07:56:48.834Z,32.00
2019-05-21T07:59:16.646Z,30.90
2019-05-21T08:01:45.550Z,34.20
2019-05-21T08:04:14.242Z,33.30
2019-05-21T08:06:42.162Z,34.30
2019-05-21T08:09:14.085Z,34.90
2019-05-21T08:11:41.087Z,32.20
2019-05-21T08:14:09.629Z,31.80
2019-05-21T08:16:38.351Z,31.70
2019-05-21T08:19:06.909Z,33.50
2019-05-21T08:21:35.478Z,34.90
2019-05-21T08:24:04.146Z,33.30
2019-05-21T08:26:31.929Z,31.30
2019-05-21T08:29:00.574Z,34.40
2019-05-21T08:31:28.421Z,35.40
2019-05-21T08:33:56.993Z,35.70
2019-05-21T08:36:24.762Z,35.20
2019-05-21T08:38:53.385Z,33.60
2019-05-21T08:41:21.978Z,34.30
2019-05-21T08:43:50.617Z,33.50
2019-05-21T08:46:18.463Z,33.10
2019-05-21T08:48:47.054Z,31.90
2019-05-21T08:51:16.584Z,31.00
2019-05-21T08:53:45.372Z,30.30
2019-05-21T08:56:14.249Z,30.20
2019-05-21T08:58:42.086Z,30.40
2019-05-21T09:01:10.844Z,31.30
2019-05-21T09:03:39.581Z,31.60
2019-05-21T09:06:08.215Z,32.40
2019-05-21T09:08:36.839Z,31.20
2019-05-21T09:11:05.630Z,31.20
2019-05-21T09:13:33.450Z,31.60
2019-05-21T09:16:02.113Z,32.20
2019-05-21T09:18:30.722Z,34.20
2019-05-21T09:20:59.403Z,35.80
2019-05-21T09:23:27.215Z,35.40
2019-05-21T09:25:55.782Z,32.40
2019-05-21T09:28:24.381Z,34.20
2019-05-21T09:30:53.065Z,34.30
2019-05-21T09:33:20.966Z,34.20
2019-05-21T09:35:49.598Z,34.00
2019-05-21T09:38:18.341Z,30.70
2019-05-21T09:40:46.370Z,29.20
2019-05-21T09:43:14.971Z,29.00
2019-05-21T09:45:44.596Z,29.40
2019-05-21T09:48:13.147Z,30.70
2019-05-21T09:50:41.751Z,32.60
2019-05-21T09:53:10.307Z,34.90
2019-05-21T09:55:38.953Z,33.30
2019-05-21T09:58:09.252Z,32.10
2019-05-21T10:00:56.124Z,32.70
2019-05-21T10:03:28.906Z,34.60
2019-05-21T10:05:57.718Z,32.80
2019-05-21T10:08:25.535Z,31.20
2019-05-21T10:10:54.103Z,31.50
2019-05-21T10:13:22.689Z,29.80
2019-05-21T10:15:51.359Z,30.20
2019-05-21T10:18:20.140Z,30.80
2019-05-21T10:20:48.718Z,29.70
2019-05-21T10:23:17.486Z,28.70
2019-05-21T10:25:46.304Z,28.20
2019-05-21T10:28:14.885Z,28.30
2019-05-21T10:30:43.522Z,27.50
2019-05-21T10:33:12.086Z,27.60
2019-05-21T10:35:40.822Z,27.80
2019-05-21T10:38:09.444Z,27.70
2019-05-21T10:40:38.153Z,27.70
2019-05-21T10:43:06.863Z,28.50
2019-05-21T10:45:35.571Z,28.70
2019-05-21T10:48:04.466Z,28.90
2019-05-21T10:50:33.050Z,28.40
2019-05-21T10:53:01.610Z,28.70
2019-05-21T10:55:30.249Z,28.50
2019-05-21T10:57:58.817Z,28.10
2019-05-21T11:00:28.472Z,28.10
2019-05-21T11:03:01.401Z,28.70
2019-05-21T11:05:40.776Z,29.30
2019-05-21T11:08:23.631Z,28.30
2019-05-21T11:10:40.250Z,28.30
2019-05-21T11:13:08.910Z,28.20
2019-05-21T11:15:37.672Z,28.60
2019-05-21T11:18:11.496Z,28.60
2019-05-21T11:20:36.546Z,28.50
2019-05-21T11:23:05.317Z,28.10
2019-05-21T11:25:33.957Z,28.50
2019-05-21T11:28:05.855Z,29.10
2019-05-21T11:30:33.170Z,28.50
2019-05-21T11:33:01.938Z,28.80
2019-05-21T11:35:30.678Z,28.60
2019-05-21T11:37:59.278Z,28.20
2019-05-21T11:40:28.376Z,28.00
2019-05-21T11:42:56.153Z,28.10
2019-05-21T11:45:32.333Z,27.90
2019-05-21T11:47:55.269Z,27.90
2019-05-21T11:50:24.143Z,27.80
2019-05-21T11:52:52.816Z,27.80
2019-05-21T11:55:21.512Z,27.90
2019-05-21T11:57:50.075Z,27.90
2019-05-21T12:00:22.302Z,28.20
2019-05-21T12:02:51.086Z,28.20
2019-05-21T12:05:19.838Z,28.10
2019-05-21T12:07:48.635Z,28.00
2019-05-21T12:10:17.665Z,27.90
2019-05-21T12:12:45.479Z,28.40
2019-05-21T12:15:14.793Z,28.40
2019-05-21T12:17:43.571Z,28.40
2019-05-21T12:20:12.995Z,28.60
2019-05-21T12:22:41.676Z,28.40
2019-05-21T12:25:10.548Z,28.40
2019-05-21T12:27:39.322Z,28.30
2019-05-21T12:30:08.599Z,28.30
2019-05-21T12:32:37.308Z,28.30
2019-05-21T12:35:06.554Z,28.30
2019-05-21T12:37:35.514Z,28.20
2019-05-21T12:40:06.580Z,28.40
2019-05-21T12:42:35.251Z,28.40
2019-05-21T12:45:04.178Z,28.40
2019-05-21T12:47:32.997Z,28.50
2019-05-21T12:50:01.707Z,28.50
2019-05-21T12:52:33.660Z,28.60
2019-05-21T12:55:00.762Z,28.50
2019-05-21T12:57:29.482Z,28.60
2019-05-21T12:59:58.045Z,28.60
2019-05-21T13:02:26.755Z,28.30
2019-05-21T13:04:55.346Z,28.40
2019-05-21T13:07:24.187Z,28.10
2019-05-21T13:09:53.046Z,28.00
2019-05-21T13:12:21.831Z,28.10
2019-05-21T13:14:50.626Z,28.10
2019-05-21T13:17:19.203Z,28.40
2019-05-21T13:19:47.844Z,28.70
2019-05-21T13:22:16.409Z,28.70
2019-05-21T13:24:45.011Z,28.80
2019-05-21T13:27:13.631Z,28.50
2019-05-21T13:29:42.370Z,28.10
2019-05-21T13:32:11.154Z,28.00
2019-05-21T13:34:39.792Z,28.20
2019-05-21T13:37:08.472Z,28.40
2019-05-21T13:39:49.309Z,28.40
2019-05-21T13:42:07.732Z,27.70
2019-05-21T13:44:36.278Z,27.60
2019-05-21T13:47:04.894Z,27.50
2019-05-21T13:49:33.558Z,27.50
2019-05-21T13:52:02.202Z,27.50
2019-05-21T13:54:30.921Z,27.70
2019-05-21T13:56:59.507Z,27.80
2019-05-21T13:59:28.333Z,27.90
2019-05-21T14:01:57.110Z,28.00
2019-05-21T14:04:25.875Z,28.00
2019-05-21T14:06:54.792Z,28.20
2019-05-21T14:09:23.861Z,28.30
2019-05-21T14:11:52.652Z,28.50
2019-05-21T14:14:21.428Z,28.50
2019-05-21T14:16:50.128Z,28.40
2019-05-21T14:19:18.829Z,28.20
2019-05-21T14:21:47.586Z,28.20
2019-05-21T14:24:16.297Z,28.10
2019-05-21T14:26:44.962Z,28.10
2019-05-21T14:29:13.578Z,27.90
2019-05-21T14:31:42.146Z,27.90
2019-05-21T14:34:10.958Z,27.70
2019-05-21T14:36:39.603Z,27.50
2019-05-21T14:39:10.179Z,27.40
2019-05-21T14:41:38.993Z,27.30
2019-05-21T14:44:07.854Z,27.20
2019-05-21T14:46:36.483Z,27.20
2019-05-21T14:49:05.142Z,27.10
2019-05-21T14:51:33.862Z,27.30
2019-05-21T14:54:05.842Z,27.40
2019-05-21T14:56:34.422Z,27.50
2019-05-21T14:59:03.063Z,27.60
2019-05-21T15:01:31.718Z,27.70
2019-05-21T15:04:00.459Z,27.70
2019-05-21T15:06:29.280Z,27.80
2019-05-21T15:08:57.881Z,27.70
2019-05-21T15:11:26.470Z,27.80
2019-05-21T15:13:55.073Z,27.80
2019-05-21T15:16:23.668Z,27.80
2019-05-21T15:18:52.303Z,27.90
2019-05-21T15:21:25.010Z,27.90
2019-05-21T15:23:53.735Z,27.90
2019-05-21T15:26:22.426Z,27.90
2019-05-21T15:28:51.128Z,27.80
2019-05-21T15:31:19.914Z,27.70
2019-05-21T15:33:48.709Z,27.70
2019-05-21T15:36:17.306Z,27.90
2019-05-21T15:38:50.635Z,27.80
2019-05-21T15:41:16.179Z,27.70
2019-05-21T15:43:44.743Z,27.30
2019-05-21T15:46:13.482Z,27.00
2019-05-21T15:48:42.108Z,26.90
2019-05-21T15:51:10.688Z,26.80
2019-05-21T15:53:39.301Z,26.80
2019-05-21T15:56:07.930Z,26.80
2019-05-21T15:58:36.530Z,26.80
2019-05-21T16:01:05.322Z,26.80
2019-05-21T16:03:33.939Z,26.80
2019-05-21T16:06:02.500Z,26.80
2019-05-21T16:08:31.120Z,26.90
2019-05-21T16:10:59.695Z,27.00
2019-05-21T16:13:28.387Z,27.00
2019-05-21T16:15:57.003Z,27.10
2019-05-21T16:18:25.595Z,27.00
2019-05-21T16:20:54.153Z,27.10
2019-05-21T16:23:22.717Z,27.00
2019-05-21T16:25:51.547Z,26.90
2019-05-21T16:28:20.204Z,26.90
2019-05-21T16:30:48.874Z,27.00
2019-05-21T16:33:17.537Z,27.00
2019-05-21T16:35:46.170Z,27.10
2019-05-21T16:38:15.000Z,27.00
2019-05-21T16:40:44.274Z,27.00
2019-05-21T16:43:12.969Z,27.00
2019-05-21T16:45:41.735Z,27.10
2019-05-21T16:48:10.413Z,27.30
2019-05-21T16:50:39.153Z,27.10
2019-05-21T16:53:08.227Z,27.10
2019-05-21T16:55:37.322Z,27.00
2019-05-21T16:58:05.237Z,26.90
2019-05-21T17:00:34.089Z,26.80
2019-05-21T17:03:02.748Z,26.80
2019-05-21T17:05:31.402Z,26.90
2019-05-21T17:07:59.999Z,27.00
2019-05-21T17:10:29.137Z,27.10
2019-05-21T17:12:56.929Z,27.00
2019-05-21T17:15:25.572Z,26.80
2019-05-21T17:17:54.150Z,26.70
2019-05-21T17:20:22.913Z,26.50
2019-05-21T17:22:51.526Z,26.30
2019-05-21T17:25:20.260Z,26.00
2019-05-21T17:27:49.084Z,25.90
2019-05-21T17:30:18.973Z,25.70
2019-05-21T17:32:47.582Z,25.80
2019-05-21T17:35:16.550Z,25.70
2019-05-21T17:37:45.208Z,25.80
2019-05-21T17:40:14.159Z,25.70
2019-05-21T17:42:43.338Z,25.60
2019-05-21T17:45:11.508Z,25.50
2019-05-21T17:47:40.334Z,25.40
2019-05-21T17:50:09.760Z,25.30
2019-05-21T17:52:38.448Z,25.30
2019-05-21T17:55:07.815Z,25.20
2019-05-21T17:57:37.022Z,25.20
2019-05-21T18:00:06.265Z,25.30
2019-05-21T18:02:34.583Z,25.10
2019-05-21T18:05:04.800Z,24.90
2019-05-21T18:07:33.330Z,24.60
2019-05-21T18:10:02.806Z,23.50
2019-05-21T18:12:32.537Z,21.20
2019-05-21T18:15:01.587Z,20.40
2019-05-21T18:17:30.990Z,19.90
2019-05-21T18:19:59.421Z,19.40
2019-05-21T18:22:30.329Z,19.00
2019-05-21T18:24:59.024Z,18.70
2019-05-21T18:27:28.000Z,18.30
2019-05-21T18:29:56.670Z,18.00
2019-05-21T18:32:25.437Z,17.60
2019-05-21T18:34:54.169Z,17.50
2019-05-21T18:37:23.147Z,17.50
2019-05-21T18:39:51.840Z,17.60
2019-05-21T18:42:22.600Z,17.70
2019-05-21T18:44:50.962Z,17.80
2019-05-21T18:47:19.554Z,18.00
2019-05-21T18:49:48.127Z,18.10
2019-05-21T18:52:16.830Z,18.20
2019-05-21T18:54:47.981Z,18.30
2019-05-21T18:57:16.401Z,18.40
2019-05-21T18:59:46.428Z,18.40
2019-05-21T19:02:15.651Z,18.40
2019-05-21T19:04:44.217Z,18.50
2019-05-21T19:07:13.191Z,18.60
2019-05-21T19:09:41.998Z,18.70
2019-05-21T19:12:10.802Z,18.80
2019-05-21T19:14:45.169Z,18.80
2019-05-21T19:17:09.872Z,18.80
2019-05-21T19:19:38.674Z,18.80
2019-05-21T19:22:07.463Z,18.80
2019-05-21T19:24:36.094Z,18.80
2019-05-21T19:27:04.888Z,18.80
2019-05-21T19:29:33.443Z,18.80
2019-05-21T19:32:02.124Z,18.80
2019-05-21T19:34:30.869Z,18.90
2019-05-21T19:36:59.461Z,18.80
2019-05-21T19:39:28.470Z,18.80
2019-05-21T19:41:57.362Z,18.80
2019-05-21T19:44:25.897Z,18.80
2019-05-21T19:46:54.736Z,18.80
2019-05-21T19:49:23.357Z,18.80
2019-05-21T19:51:52.265Z,18.80
2019-05-21T19:54:20.979Z,18.70
2019-05-21T19:56:49.646Z,18.70
2019-05-21T19:59:18.288Z,18.60
2019-05-21T20:01:47.282Z,18.60
2019-05-21T20:04:16.227Z,18.50
2019-05-21T20:06:45.236Z,18.40
2019-05-21T20:09:15.847Z,18.40
2019-05-21T20:11:44.761Z,18.40
2019-05-21T20:14:13.416Z,18.30
2019-05-21T20:16:42.344Z,18.30
2019-05-21T20:19:12.577Z,18.30
2019-05-21T20:21:41.485Z,18.20
2019-05-21T20:24:10.397Z,18.20
2019-05-21T20:26:39.481Z,18.20
2019-05-21T20:29:09.392Z,18.20
2019-05-21T20:31:39.913Z,18.10
2019-05-21T20:34:10.466Z,18.10
2019-05-21T20:36:40.833Z,18.10
2019-05-21T20:39:11.414Z,18.00
2019-05-21T20:41:40.979Z,17.90
2019-05-21T20:44:11.246Z,17.90
2019-05-21T20:46:41.009Z,17.90
2019-05-21T20:49:10.343Z,17.80
2019-05-21T20:51:38.946Z,17.80
2019-05-21T20:54:08.428Z,17.80
2019-05-21T20:56:36.260Z,17.80
2019-05-21T20:59:05.146Z,17.70
2019-05-21T21:01:34.521Z,17.70
2019-05-21T21:04:03.413Z,17.60
2019-05-21T21:06:35.673Z,17.60
2019-05-21T21:09:07.413Z,17.60
2019-05-21T21:11:36.533Z,17.60
2019-05-21T21:14:17.521Z,17.50
2019-05-21T21:16:37.668Z,17.40
2019-05-21T21:19:06.360Z,17.40
2019-05-21T21:21:36.336Z,17.30
2019-05-21T21:24:06.686Z,17.30
2019-05-21T21:26:35.659Z,17.20
2019-05-21T21:29:04.735Z,17.20
2019-05-21T21:31:33.614Z,17.10
2019-05-21T21:34:02.350Z,17.10
2019-05-21T21:36:32.102Z,17.10
2019-05-21T21:39:00.673Z,17.10
2019-05-21T21:41:29.827Z,17.00
2019-05-21T21:43:58.662Z,17.10
2019-05-21T21:46:27.359Z,17.00
2019-05-21T21:48:56.728Z,17.00
2019-05-21T21:51:24.702Z,16.90
2019-05-21T21:53:53.568Z,17.00
2019-05-21T21:56:22.489Z,17.00
2019-05-21T21:58:51.194Z,17.00
2019-05-21T22:01:36.083Z,17.00
2019-05-21T22:04:07.302Z,17.00
2019-05-21T22:06:39.470Z,16.90
2019-05-21T22:09:11.351Z,16.90
2019-05-21T22:11:40.349Z,16.80
2019-05-21T22:14:09.559Z,16.80
2019-05-21T22:16:38.347Z,16.80
2019-05-21T22:19:08.414Z,16.80
2019-05-21T22:21:38.224Z,16.80
2019-05-21T22:24:07.725Z,16.80
2019-05-21T22:26:36.631Z,16.80
2019-05-21T22:29:05.387Z,16.70
2019-05-21T22:31:34.070Z,16.70
2019-05-21T22:34:02.816Z,16.60
2019-05-21T22:36:31.766Z,16.60
2019-05-21T22:39:00.466Z,16.60
2019-05-21T22:41:29.146Z,16.60
2019-05-21T22:43:57.891Z,16.60
2019-05-21T22:46:26.482Z,16.60
2019-05-21T22:48:55.076Z,16.50
2019-05-21T22:51:23.644Z,16.40
2019-05-21T22:53:52.323Z,16.40
2019-05-21T22:56:21.097Z,16.40
2019-05-21T22:58:49.762Z,16.40
2019-05-21T23:01:19.440Z,16.40
2019-05-21T23:03:48.249Z,16.40
2019-05-21T23:06:17.114Z,16.30
2019-05-21T23:08:45.717Z,16.30
2019-05-21T23:11:14.329Z,16.20
2019-05-21T23:13:42.935Z,16.30
2019-05-21T23:16:12.124Z,16.20
2019-05-21T23:18:41.339Z,16.20
2019-05-21T23:21:11.164Z,16.20
2019-05-21T23:23:41.493Z,16.20
2019-05-21T23:26:10.245Z,16.20
2019-05-21T23:28:40.051Z,16.20
2019-05-21T23:31:10.419Z,16.20
2019-05-21T23:33:40.828Z,16.10
2019-05-21T23:36:09.705Z,16.10
2019-05-21T23:38:38.749Z,16.10
2019-05-21T23:41:08.810Z,16.10
2019-05-21T23:43:38.245Z,16.10
2019-05-21T23:46:06.339Z,16.00
2019-05-21T23:48:35.597Z,16.10
2019-05-21T23:51:04.983Z,16.00
2019-05-21T23:53:33.166Z,16.00
2019-05-21T23:56:02.056Z,15.90
2019-05-21T23:58:30.987Z,15.90
